Time;durP1;ratioP1;P1;durP2;ratioP2;P2;SDS_P1;SDS_P2;PMS_P1;PMS_P2;Temp;Humidity;BMP_temperature;BMP_pressure;BME280_temperature;BME280_humidity;BME280_pressure;Samples;Min_cycle;Max_cycle;Signal;HPM_P1;HPM_P2
2021/12/17 00:00:32;;;;;;;14.40;6.55;;;;;;;4.12;81.82;99927.47;5110809;28;20019;-65
2021/12/17 00:08:14;;;;;;;14.45;6.20;;;;;;;4.09;80.85;99940.63;5110293;28;20027;-67
2021/12/17 00:10:40;;;;;;;12.52;6.25;;;;;;;4.08;80.99;99949.81;5110794;28;20035;-67
2021/12/17 00:13:07;;;;;;;17.00;6.63;;;;;;;4.07;81.43;99953.59;5110637;28;20081;-66
2021/12/17 00:15:32;;;;;;;14.30;6.25;;;;;;;4.11;81.16;99949.38;5110419;28;20016;-67
2021/12/17 00:18:05;;;;;;;14.63;6.30;;;;;;;4.09;81.49;99941.47;5109934;28;20231;-67
2021/12/17 00:53:24;;;;;;;16.25;5.65;;;;;;;4.08;80.27;99930.81;5109468;28;20027;-67
2021/12/17 00:55:50;;;;;;;12.98;4.43;;;;;;;4.06;81.03;99938.38;5110659;28;20046;-66
2021/12/17 00:58:17;;;;;;;12.77;4.70;;;;;;;4.05;80.21;99931.25;5109983;28;20467;-67
2021/12/17 01:00:42;;;;;;;12.95;4.47;;;;;;;4.04;80.72;99930.41;5110079;28;20020;-68
2021/12/17 01:03:07;;;;;;;16.65;4.47;;;;;;;4.05;81.26;99940.22;5092190;28;20027;-67
2021/12/17 01:05:33;;;;;;;14.98;5.35;;;;;;;4.06;80.19;99941.91;5092009;28;20451;-68
2021/12/17 01:08:01;;;;;;;16.35;4.82;;;;;;;4.08;80.24;99933.53;5110010;28;20044;-67
2021/12/17 01:10:32;;;;;;;14.85;4.47;;;;;;;4.09;80.51;99932.47;5109883;28;20041;-68
2021/12/17 01:12:59;;;;;;;11.30;4.45;;;;;;;4.09;80.91;99933.31;5105166;28;20023;-68
2021/12/17 01:15:25;;;;;;;12.75;4.43;;;;;;;4.08;80.66;99945.22;5089519;28;20024;-67
2021/12/17 01:17:58;;;;;;;12.85;4.97;;;;;;;4.06;79.89;99941.91;5110715;28;20020;-67
2021/12/17 01:36:28;;;;;;;13.15;3.85;;;;;;;4.05;80.64;99914.97;5110271;28;20042;-68
2021/12/17 01:44:06;;;;;;;13.32;4.50;;;;;;;4.09;80.95;99910.75;5112924;28;20071;-68
2021/12/17 01:46:35;;;;;;;13.70;4.05;;;;;;;4.11;80.26;99908.66;5109870;28;20023;-65
2021/12/17 02:00:02;;;;;;;9.25;4.30;;;;;;;4.02;80.71;99932.50;5115587;28;20047;-68
2021/12/17 02:02:30;;;;;;;12.27;4.85;;;;;;;4.00;80.49;99923.75;5115065;28;20011;-67
2021/12/17 02:04:55;;;;;;;10.73;4.35;;;;;;;3.97;79.83;99925.03;5095758;28;20023;-68
2021/12/17 02:07:22;;;;;;;12.23;4.55;;;;;;;3.95;80.89;99913.56;5112416;28;20024;-68
2021/12/17 02:32:07;;;;;;;12.32;4.47;;;;;;;3.91;79.87;99919.63;5112879;28;20522;-67
2021/12/17 02:37:15;;;;;;;15.35;5.80;;;;;;;3.89;79.70;99930.72;5109783;28;20015;-68
2021/12/17 02:47:39;;;;;;;13.13;4.22;;;;;;;3.83;79.84;99918.00;5112625;28;20398;-68
2021/12/17 02:50:07;;;;;;;12.63;3.85;;;;;;;3.82;79.58;99925.31;5112134;28;20429;-68
2021/12/17 02:52:36;;;;;;;16.70;4.20;;;;;;;3.83;79.28;99924.28;5092901;28;20491;-68
2021/12/17 02:55:03;;;;;;;10.05;3.35;;;;;;;3.83;79.93;99932.41;5109075;28;20036;-68
2021/12/17 02:57:28;;;;;;;11.00;4.07;;;;;;;3.80;79.34;99915.72;5090183;28;20023;-68
2021/12/17 02:59:56;;;;;;;14.23;4.00;;;;;;;3.78;79.54;99907.78;5112808;28;20020;-68
2021/12/17 03:02:24;;;;;;;10.27;3.97;;;;;;;3.79;78.94;99916.75;5112419;28;20041;-68
2021/12/17 03:04:50;;;;;;;11.48;3.50;;;;;;;3.74;78.98;99914.69;5111096;28;20027;-69
2021/12/17 03:07:16;;;;;;;10.38;4.15;;;;;;;3.70;78.92;99906.13;5110950;28;20191;-67
2021/12/17 03:12:16;;;;;;;11.07;3.90;;;;;;;3.69;78.42;99907.19;5112485;28;20399;-68
2021/12/17 03:14:50;;;;;;;10.82;3.75;;;;;;;3.69;79.23;99906.38;5112429;28;20109;-68
2021/12/17 03:17:28;;;;;;;14.75;4.93;;;;;;;3.68;78.62;99902.81;5111347;28;20035;-68
2021/12/17 03:25:03;;;;;;;11.90;4.57;;;;;;;3.57;79.62;99892.66;5110717;28;20173;-68
2021/12/17 03:27:28;;;;;;;11.35;3.95;;;;;;;3.57;79.05;99889.94;5109219;28;20102;-68
2021/12/17 03:29:54;;;;;;;27.30;7.68;;;;;;;3.57;79.24;99892.66;5111984;28;20495;-68
2021/12/17 03:32:19;;;;;;;37.08;12.07;;;;;;;3.59;79.48;99877.00;5112197;28;20016;-68
2021/12/17 03:34:45;;;;;;;60.97;23.80;;;;;;;3.57;79.69;99874.47;5111528;28;20373;-68
2021/12/17 03:37:10;;;;;;;34.78;11.93;;;;;;;3.60;79.65;99875.09;5109967;28;20486;-67
2021/12/17 03:39:37;;;;;;;26.88;8.20;;;;;;;3.57;79.59;99869.03;5111754;28;20030;-68
2021/12/17 03:42:06;;;;;;;18.77;7.07;;;;;;;3.52;79.36;99873.47;5112055;28;20107;-68
2021/12/17 03:44:32;;;;;;;13.15;4.72;;;;;;;3.47;79.72;99874.09;5111472;28;20038;-67
2021/12/17 03:46:58;;;;;;;16.83;5.22;;;;;;;3.40;78.67;99873.31;5109762;28;20106;-68
2021/12/17 03:49:24;;;;;;;13.45;4.75;;;;;;;3.39;79.54;99882.50;5109312;28;20046;-68
2021/12/17 03:52:04;;;;;;;14.25;4.43;;;;;;;3.34;79.30;99864.13;5108416;28;20020;-68
2021/12/17 03:54:32;;;;;;;13.68;4.20;;;;;;;3.33;79.31;99870.59;5110911;28;20024;-68
2021/12/17 03:56:59;;;;;;;14.60;3.95;;;;;;;3.32;79.73;99871.66;5108736;28;20031;-67
2021/12/17 03:59:24;;;;;;;12.45;4.72;;;;;;;3.28;79.74;99863.13;5109779;28;20063;-67
2021/12/17 04:01:49;;;;;;;17.73;5.65;;;;;;;3.28;79.74;99870.41;5109206;28;20066;-69
2021/12/17 04:04:15;;;;;;;15.55;4.10;;;;;;;3.27;79.52;99866.03;5109777;28;20031;-68
2021/12/17 04:06:40;;;;;;;13.02;3.80;;;;;;;3.27;79.42;99866.03;5108734;28;20043;-68
2021/12/17 04:09:07;;;;;;;16.98;5.60;;;;;;;3.25;78.99;99863.53;5111141;28;20031;-68
2021/12/17 04:11:33;;;;;;;12.98;4.32;;;;;;;3.23;79.51;99859.38;5110961;28;20026;-68
2021/12/17 04:13:59;;;;;;;16.80;4.88;;;;;;;3.22;79.23;99855.81;5111102;28;20032;-68
2021/12/17 04:16:29;;;;;;;10.45;3.72;;;;;;;3.21;79.13;99856.06;5110790;28;20103;-68
2021/12/17 04:18:55;;;;;;;11.00;4.03;;;;;;;3.24;79.64;99837.47;5091931;28;20044;-68
2021/12/17 04:21:21;;;;;;;10.75;4.20;;;;;;;3.22;79.64;99836.03;5109579;28;20032;-68
2021/12/17 04:23:49;;;;;;;13.00;4.43;;;;;;;3.23;79.50;99843.94;5090190;28;20449;-68
2021/12/17 04:26:16;;;;;;;10.23;4.15;;;;;;;3.20;78.81;99840.84;5090810;28;20049;-68
2021/12/17 04:28:45;;;;;;;16.27;5.63;;;;;;;3.16;79.17;99832.28;5110548;28;20024;-68
2021/12/17 04:31:12;;;;;;;17.90;5.53;;;;;;;3.13;78.75;99840.84;5111975;28;20464;-67
2021/12/17 04:33:39;;;;;;;13.15;4.30;;;;;;;3.12;79.24;99848.16;5110662;28;20070;-68
2021/12/17 04:36:05;;;;;;;13.50;4.35;;;;;;;3.19;79.56;99848.13;5111030;28;20020;-68
2021/12/17 04:38:31;;;;;;;11.05;3.97;;;;;;;3.23;79.17;99859.38;5109076;28;20027;-68
2021/12/17 04:41:10;;;;;;;10.82;3.33;;;;;;;3.28;79.68;99864.97;5110472;28;20041;-68
2021/12/17 04:43:43;;;;;;;10.18;3.47;;;;;;;3.33;79.32;99845.38;5110912;28;20035;-68
2021/12/17 04:46:25;;;;;;;11.00;3.72;;;;;;;3.35;79.64;99846.00;5111544;28;20490;-67
2021/12/17 04:57:29;;;;;;;13.75;4.55;;;;;;;3.38;79.82;99835.53;5055708;28;20508;-68
2021/12/17 05:00:00;;;;;;;12.43;3.90;;;;;;;3.36;78.97;99845.75;5069102;28;20047;-68
2021/12/17 05:02:26;;;;;;;9.90;3.75;;;;;;;3.34;78.80;99836.19;5091915;28;20043;-68
2021/12/17 05:04:53;;;;;;;11.93;4.32;;;;;;;3.29;79.33;99839.53;5111444;28;20036;-68
2021/12/17 05:07:18;;;;;;;14.13;4.72;;;;;;;3.25;79.02;99839.13;5111385;28;20130;-68
2021/12/17 05:20:43;;;;;;;8.95;3.03;;;;;;;3.34;77.67;99864.13;5110888;28;20046;-68
2021/12/17 05:23:08;;;;;;;;;;;;;;;3.35;77.52;99844.09;5110121;28;20051;-68
2021/12/17 05:25:33;;;;;;;7.70;3.30;;;;;;;3.37;76.92;99850.13;5111548;28;19970;-68
2021/12/17 05:28:02;;;;;;;11.13;3.75;;;;;;;3.39;77.84;99850.75;5110814;28;20027;-68
2021/12/17 05:30:29;;;;;;;9.95;3.03;;;;;;;3.42;77.06;99847.63;5111614;28;20019;-68
2021/12/17 05:32:55;;;;;;;9.05;3.30;;;;;;;3.43;77.17;99848.47;5115609;28;20019;-68
2021/12/17 05:35:21;;;;;;;7.07;3.10;;;;;;;3.42;77.90;99836.78;5115611;28;20425;-68
2021/12/17 05:37:47;;;;;;;8.30;3.20;;;;;;;3.41;77.81;99842.44;5115419;28;20027;-68
2021/12/17 05:40:12;;;;;;;10.40;3.65;;;;;;;3.36;77.24;99844.94;5119180;27;20016;-68
2021/12/17 05:42:40;;;;;;;11.18;4.30;;;;;;;3.34;76.54;99857.88;5116200;27;20433;-68
2021/12/17 05:45:22;;;;;;;15.07;4.03;;;;;;;3.33;76.90;99851.63;5115342;28;20035;-68
2021/12/17 05:47:49;;;;;;;11.23;3.60;;;;;;;3.33;76.60;99854.31;5111219;28;20106;-68
2021/12/17 05:50:15;;;;;;;7.20;3.15;;;;;;;3.34;76.58;99857.88;5114959;28;20438;-68
2021/12/17 05:52:40;;;;;;;12.90;6.55;;;;;;;3.36;76.46;99855.78;5115214;28;20080;-68
2021/12/17 05:55:06;;;;;;;9.88;3.75;;;;;;;3.35;76.33;99856.84;5097018;28;20023;-68
2021/12/17 05:57:32;;;;;;;8.45;3.63;;;;;;;3.33;76.75;99854.31;5115128;28;20020;-68
2021/12/17 05:59:57;;;;;;;10.68;3.42;;;;;;;3.34;75.94;99872.25;5114871;28;20027;-68
2021/12/17 06:02:23;;;;;;;7.22;3.75;;;;;;;3.37;75.88;99868.31;5115337;27;20028;-68
2021/12/17 06:04:48;;;;;;;15.13;4.18;;;;;;;3.31;75.58;99872.69;5115113;28;20031;-68
2021/12/17 06:07:24;;;;;;;7.30;3.00;;;;;;;3.30;76.20;99872.91;5114325;27;20114;-68
2021/12/17 06:09:51;;;;;;;10.07;3.30;;;;;;;3.31;76.21;99871.88;5114985;28;20020;-68
2021/12/17 06:12:17;;;;;;;8.65;3.50;;;;;;;3.30;75.77;99881.88;5113436;28;20058;-68
2021/12/17 06:14:42;;;;;;;12.75;3.53;;;;;;;3.29;76.35;99891.03;5113328;28;20046;-68
2021/12/17 06:17:07;;;;;;;11.77;3.70;;;;;;;3.28;75.80;99892.09;5112441;28;20020;-68
2021/12/17 06:19:33;;;;;;;12.02;4.03;;;;;;;3.30;75.39;99897.31;5113302;27;20036;-68
2021/12/17 06:21:59;;;;;;;10.73;3.65;;;;;;;3.31;75.77;99896.28;5113111;28;20383;-66
2021/12/17 06:24:25;;;;;;;13.70;4.90;;;;;;;3.34;75.93;99902.09;5113125;28;20102;-67
2021/12/17 06:26:51;;;;;;;6.00;3.60;;;;;;;3.36;75.55;99912.75;5112537;28;20047;-67
2021/12/17 06:29:16;;;;;;;12.65;4.93;;;;;;;3.35;76.52;99908.38;5113122;28;20502;-67
2021/12/17 06:31:42;;;;;;;9.23;3.45;;;;;;;3.35;76.19;99917.31;5112873;28;20028;-68
2021/12/17 06:34:07;;;;;;;9.40;4.22;;;;;;;3.37;76.69;99920.66;5113202;28;20060;-68
2021/12/17 06:36:33;;;;;;;10.60;5.07;;;;;;;3.38;75.46;99908.75;5112526;28;20027;-68
2021/12/17 06:38:58;;;;;;;10.48;4.20;;;;;;;3.38;75.94;99902.53;5113142;28;20201;-68
2021/12/17 06:41:23;;;;;;;12.27;5.30;;;;;;;3.39;76.22;99899.56;5112042;28;20047;-68
2021/12/17 06:43:49;;;;;;;17.08;7.03;;;;;;;3.40;76.14;99914.81;5113118;28;20058;-68
2021/12/17 06:46:32;;;;;;;17.17;5.30;;;;;;;3.40;76.35;99916.69;5114794;27;20024;-68
2021/12/17 06:49:15;;;;;;;13.98;4.80;;;;;;;3.38;75.65;99916.91;5113916;28;20091;-69
2021/12/17 06:54:48;;;;;;;10.70;4.22;;;;;;;3.35;75.99;99919.22;5114291;28;20070;-68
2021/12/17 07:10:41;;;;;;;29.60;13.68;;;;;;;3.39;76.87;99904.19;5114154;27;20498;-68
2021/12/17 07:34:04;;;;;;;16.70;6.88;;;;;;;3.46;76.83;99883.31;5111415;27;20055;-66
2021/12/17 07:36:39;;;;;;;15.43;6.35;;;;;;;3.46;76.93;99896.88;5112143;27;20081;-67
2021/12/17 07:39:05;;;;;;;31.73;13.27;;;;;;;3.46;77.39;99899.56;5111430;27;20023;-66
2021/12/17 07:41:31;;;;;;;30.15;11.75;;;;;;;3.44;77.20;99896.25;5110659;27;20464;-67
2021/12/17 07:43:59;;;;;;;23.58;9.70;;;;;;;3.43;77.32;99895.41;5110702;28;20135;-66
2021/12/17 07:46:25;;;;;;;29.35;10.82;;;;;;;3.42;77.33;99896.44;5111105;28;20031;-67
2021/12/17 07:48:51;;;;;;;27.30;9.75;;;;;;;3.39;77.41;99905.00;5108431;28;20035;-66
2021/12/17 07:51:19;;;;;;;17.45;6.50;;;;;;;3.37;77.65;99900.84;5111115;28;20115;-67
2021/12/17 07:53:45;;;;;;;20.73;7.60;;;;;;;3.37;77.65;99900.84;5111160;28;20039;-67
2021/12/17 07:56:15;;;;;;;21.23;8.40;;;;;;;3.40;77.31;99901.25;5093114;28;20024;-67
2021/12/17 07:58:41;;;;;;;16.63;7.32;;;;;;;3.39;77.52;99905.00;5104136;27;20047;-67
2021/12/17 08:01:08;;;;;;;15.43;5.55;;;;;;;3.36;77.57;99901.91;5093300;28;20032;-67
2021/12/17 08:03:34;;;;;;;14.18;6.40;;;;;;;3.38;76.90;99905.22;5111581;28;20111;-67
2021/12/17 08:06:00;;;;;;;13.65;5.30;;;;;;;3.38;77.13;99900.63;5111685;27;20095;-67
2021/12/17 08:08:26;;;;;;;12.20;4.32;;;;;;;3.39;76.58;99896.88;5111277;28;20047;-67
2021/12/17 08:10:51;;;;;;;15.45;6.43;;;;;;;3.41;76.51;99886.63;5111813;28;20077;-67
2021/12/17 08:13:24;;;;;;;15.45;5.32;;;;;;;3.42;76.64;99885.59;5112460;27;20081;-66
2021/12/17 08:24:37;;;;;;;24.48;12.05;;;;;;;3.57;76.06;99889.94;5107294;28;20438;-69
2021/12/17 08:31:27;;;;;;;13.50;6.15;;;;;;;3.65;76.19;99894.28;5109333;28;20031;-70
2021/12/17 08:33:52;;;;;;;15.52;5.13;;;;;;;3.67;75.90;99903.03;5106915;27;20102;-70
2021/12/17 08:36:19;;;;;;;15.90;7.60;;;;;;;3.67;75.73;99911.16;5107753;27;20106;-70
2021/12/17 08:38:46;;;;;;;11.98;5.10;;;;;;;3.67;76.16;99911.16;5109808;28;20369;-69
2021/12/17 08:41:13;;;;;;;21.10;8.73;;;;;;;3.66;75.92;99912.22;5110082;28;20034;-69
2021/12/17 08:43:40;;;;;;;25.25;8.93;;;;;;;3.68;75.21;99915.56;5104978;28;21377;-69
2021/12/17 08:46:06;;;;;;;23.15;7.72;;;;;;;3.73;75.09;99915.75;5110330;27;20483;-70
2021/12/17 08:48:32;;;;;;;13.90;7.03;;;;;;;3.80;75.27;99908.41;5109834;28;20072;-69
2021/12/17 08:50:58;;;;;;;18.63;7.22;;;;;;;3.85;75.33;99913.19;5109925;28;20024;-69
2021/12/17 08:53:24;;;;;;;15.07;6.72;;;;;;;3.84;74.38;99920.50;5090883;28;20035;-69
2021/12/17 08:55:49;;;;;;;15.25;6.03;;;;;;;3.82;74.77;99911.75;5111359;27;20019;-68
2021/12/17 08:58:15;;;;;;;18.90;7.28;;;;;;;3.83;74.54;99904.41;5109276;28;20372;-69
2021/12/17 09:00:42;;;;;;;19.92;7.55;;;;;;;3.85;74.98;99921.31;5106491;28;20024;-68
2021/12/17 09:03:09;;;;;;;9.65;4.38;;;;;;;3.89;74.74;99919.84;5108766;28;20090;-68
2021/12/17 09:05:37;;;;;;;13.35;6.07;;;;;;;3.94;74.62;99922.75;5107819;27;20027;-68
2021/12/17 09:08:04;;;;;;;12.18;5.55;;;;;;;3.98;75.09;99923.97;5108612;28;20031;-68
2021/12/17 09:10:29;;;;;;;12.68;3.58;;;;;;;4.00;74.85;99918.31;5108647;28;20088;-69
2021/12/17 09:12:55;;;;;;;9.80;3.70;;;;;;;4.01;74.71;99928.97;5106409;28;20551;-68
2021/12/17 09:15:20;;;;;;;7.28;3.85;;;;;;;4.01;74.66;99928.13;5104617;27;20027;-69
2021/12/17 09:17:46;;;;;;;11.25;4.00;;;;;;;3.99;73.40;99928.38;5108752;28;20111;-71
2021/12/17 09:20:11;;;;;;;13.75;4.57;;;;;;;3.98;73.94;99937.56;5108611;28;20510;-69
2021/12/17 09:22:37;;;;;;;20.20;6.70;;;;;;;3.98;73.84;99936.72;5108041;28;20028;-70
2021/12/17 09:25:03;;;;;;;15.32;5.45;;;;;;;3.97;73.96;99945.91;5108656;28;20462;-70
2021/12/17 09:27:29;;;;;;;10.32;3.70;;;;;;;3.92;72.44;99921.28;5109121;28;20106;-70
2021/12/17 09:29:54;;;;;;;13.00;3.42;;;;;;;3.91;71.64;99908.75;5109389;28;20114;-70
2021/12/17 09:32:21;;;;;;;10.57;3.80;;;;;;;3.89;72.28;99906.28;5104710;28;20128;-68
2021/12/17 09:34:46;;;;;;;16.30;4.55;;;;;;;3.90;72.49;99921.50;5108322;28;20028;-70
2021/12/17 09:37:13;;;;;;;14.50;4.78;;;;;;;3.94;72.31;99913.75;5100350;28;20034;-70
2021/12/17 09:39:38;;;;;;;10.82;3.15;;;;;;;3.96;71.83;99923.38;5101720;28;20028;-67
2021/12/17 09:42:04;;;;;;;15.73;5.35;;;;;;;3.98;73.11;99923.97;5107279;28;20026;-70
2021/12/17 09:44:29;;;;;;;10.68;4.70;;;;;;;3.99;72.36;99912.06;5099335;28;20062;-70
2021/12/17 09:46:57;;;;;;;15.57;6.28;;;;;;;4.04;71.72;99916.03;5077279;28;20027;-71
2021/12/17 09:49:23;;;;;;;16.85;6.18;;;;;;;4.03;72.20;99912.47;5103680;28;20077;-71
2021/12/17 09:51:49;;;;;;;10.68;4.78;;;;;;;4.06;72.12;99906.59;5108780;28;20055;-70
2021/12/17 09:54:15;;;;;;;15.90;6.18;;;;;;;4.08;71.84;99900.94;5108964;28;20019;-70
2021/12/17 09:56:40;;;;;;;15.40;6.90;;;;;;;4.09;72.18;99900.75;5109062;28;20110;-71
2021/12/17 09:59:06;;;;;;;12.50;6.30;;;;;;;4.10;71.92;99896.97;5084003;28;20028;-71
2021/12/17 10:01:36;;;;;;;13.55;8.10;;;;;;;4.08;71.73;99885.50;5099956;28;20197;-71
2021/12/17 10:04:27;;;;;;;17.77;8.48;;;;;;;4.14;72.32;99886.50;5106776;28;20035;-68
2021/12/17 10:07:31;;;;;;;30.48;16.20;;;;;;;4.15;71.24;99885.44;5099926;28;20107;-69
2021/12/17 10:10:02;;;;;;;15.35;5.40;;;;;;;4.18;70.94;99879.56;5109423;28;20119;-69
2021/12/17 10:12:33;;;;;;;32.95;18.48;;;;;;;4.22;71.27;99872.66;5109740;28;20637;-69
2021/12/17 10:15:06;;;;;;;13.75;5.22;;;;;;;4.25;70.42;99869.50;5109230;28;20502;-68
2021/12/17 10:17:48;;;;;;;13.57;6.68;;;;;;;4.30;70.91;99871.56;5111144;28;20022;-68
2021/12/17 10:20:14;;;;;;;14.48;7.72;;;;;;;4.34;70.34;99872.78;5113029;28;20060;-71
2021/12/17 10:22:44;;;;;;;17.23;6.35;;;;;;;4.42;70.32;99874.41;5112031;27;20039;-70
2021/12/17 10:25:10;;;;;;;16.83;8.20;;;;;;;4.50;69.26;99870.59;5111333;28;20487;-69
2021/12/17 10:27:38;;;;;;;17.08;8.20;;;;;;;4.50;68.91;99881.44;5109590;27;20096;-69
2021/12/17 10:30:35;;;;;;;23.13;12.05;;;;;;;4.44;69.21;99883.19;5112105;28;20023;-67
2021/12/17 10:33:04;;;;;;;11.35;6.78;;;;;;;4.51;69.55;99883.13;5089150;28;20670;-70
2021/12/17 10:35:31;;;;;;;14.23;8.43;;;;;;;4.52;69.69;99884.78;5094070;28;20031;-69
2021/12/17 10:38:04;;;;;;;12.50;6.05;;;;;;;4.52;68.97;99877.44;5110620;28;20035;-70
2021/12/17 10:40:47;;;;;;;13.48;5.30;;;;;;;4.50;69.34;99870.59;5114726;27;20114;-69
2021/12/17 10:43:28;;;;;;;20.65;9.13;;;;;;;4.52;69.67;99877.44;5111833;28;20060;-70
2021/12/17 10:51:14;;;;;;;21.67;9.23;;;;;;;4.35;70.25;99882.59;5112774;28;20067;-69
2021/12/17 10:53:54;;;;;;;27.35;8.45;;;;;;;4.29;70.37;99870.72;5112705;28;20051;-70
2021/12/17 10:56:24;;;;;;;16.77;8.55;;;;;;;4.33;70.19;99876.53;5112502;28;20020;-71
2021/12/17 10:58:59;;;;;;;19.15;6.10;;;;;;;4.30;69.91;99866.13;5112416;28;20028;-69
2021/12/17 11:01:32;;;;;;;13.50;5.10;;;;;;;4.28;69.38;99873.69;5094466;28;20020;-68
2021/12/17 11:04:08;;;;;;;16.52;6.65;;;;;;;4.23;70.27;99878.94;5094345;28;20081;-70
2021/12/17 11:07:02;;;;;;;22.45;8.52;;;;;;;4.22;71.09;99882.72;5109114;28;20157;-68
2021/12/17 11:09:32;;;;;;;19.98;10.38;;;;;;;4.25;70.94;99882.28;5112029;28;20012;-69
2021/12/17 11:12:01;;;;;;;18.73;9.30;;;;;;;4.24;70.09;99873.28;5112529;28;20051;-70
2021/12/17 11:14:27;;;;;;;18.45;9.52;;;;;;;4.17;70.57;99873.34;5112467;28;20011;-70
2021/12/17 11:16:54;;;;;;;13.63;5.28;;;;;;;4.14;70.74;99873.75;5111406;28;20139;-69
2021/12/17 11:19:19;;;;;;;15.82;6.53;;;;;;;4.11;70.66;99868.78;5093931;28;20051;-69
2021/12/17 11:21:45;;;;;;;13.65;4.32;;;;;;;4.06;71.00;99868.59;5111841;28;20058;-69
2021/12/17 11:24:11;;;;;;;13.93;6.10;;;;;;;4.07;70.83;99872.16;5111180;28;20506;-68
2021/12/17 11:26:36;;;;;;;16.58;7.00;;;;;;;4.09;70.51;99870.03;5111543;28;20080;-68
2021/12/17 11:29:03;;;;;;;13.25;5.28;;;;;;;4.12;71.02;99873.16;5111206;28;20551;-68
2021/12/17 11:31:31;;;;;;;13.98;5.32;;;;;;;4.20;70.04;99876.66;5111257;28;20027;-69
2021/12/17 11:33:59;;;;;;;13.45;5.88;;;;;;;4.17;70.33;99872.47;5094682;28;20100;-70
2021/12/17 11:36:25;;;;;;;11.98;4.80;;;;;;;4.13;70.28;99874.81;5110677;27;20034;-70
2021/12/17 11:39:13;;;;;;;12.60;4.10;;;;;;;4.11;69.73;99867.91;5112161;27;20028;-70
2021/12/17 11:41:55;;;;;;;15.32;5.10;;;;;;;4.10;68.78;99877.97;5111527;28;20034;-71
2021/12/17 11:44:27;;;;;;;12.95;4.78;;;;;;;4.07;69.24;99867.53;5109004;28;20023;-71
2021/12/17 11:47:04;;;;;;;21.27;6.97;;;;;;;4.04;69.81;99867.97;5094659;28;20023;-71
2021/12/17 11:49:36;;;;;;;10.13;4.65;;;;;;;4.07;69.29;99872.97;5111154;27;20066;-70
2021/12/17 11:52:02;;;;;;;12.18;5.13;;;;;;;4.04;70.05;99870.69;5111632;28;20471;-70
2021/12/17 11:54:31;;;;;;;11.27;5.07;;;;;;;4.04;69.97;99881.53;5090281;28;20118;-71
2021/12/17 11:57:08;;;;;;;26.55;7.55;;;;;;;4.01;69.83;99873.84;5108885;28;20048;-71
2021/12/17 11:59:37;;;;;;;13.88;5.50;;;;;;;3.99;69.85;99876.78;5111852;27;20047;-71
2021/12/17 12:02:24;;;;;;;10.85;5.47;;;;;;;3.97;69.91;99878.03;5109866;28;20023;-71
2021/12/17 12:04:53;;;;;;;11.95;4.57;;;;;;;3.93;69.36;99874.09;5108063;28;20026;-72
2021/12/17 12:07:24;;;;;;;17.08;6.25;;;;;;;3.93;69.87;99872.22;5109087;27;20115;-70
2021/12/17 12:10:05;;;;;;;11.82;4.60;;;;;;;3.93;70.01;99866.78;5114307;27;20391;-70
2021/12/17 12:12:33;;;;;;;11.43;5.43;;;;;;;3.94;69.76;99865.75;5109839;27;20027;-72
2021/12/17 12:15:20;;;;;;;10.52;5.22;;;;;;;3.91;70.20;99862.63;5110364;28;20425;-72
2021/12/17 12:17:58;;;;;;;16.02;5.65;;;;;;;3.92;70.67;99859.69;5110686;28;20031;-72
2021/12/17 12:20:46;;;;;;;18.25;7.82;;;;;;;3.92;70.54;99867.84;5112121;28;20047;-71
2021/12/17 12:23:14;;;;;;;35.58;15.35;;;;;;;3.91;70.62;99871.59;5111726;28;20023;-71
2021/12/17 12:25:40;;;;;;;17.92;7.70;;;;;;;3.93;71.05;99876.81;5111930;28;20026;-71
2021/12/17 12:28:07;;;;;;;18.77;8.52;;;;;;;3.94;70.08;99868.47;5111209;28;20054;-71
2021/12/17 12:30:41;;;;;;;27.52;13.15;;;;;;;3.90;70.74;99860.94;5111953;28;20429;-71
2021/12/17 12:33:08;;;;;;;23.80;11.25;;;;;;;3.87;69.66;99862.22;5111805;28;20499;-72
2021/12/17 12:35:34;;;;;;;17.73;7.55;;;;;;;3.82;70.46;99862.91;5111634;28;20567;-71
2021/12/17 12:38:22;;;;;;;61.00;31.38;;;;;;;3.79;70.54;99857.91;5111065;28;20102;-71
2021/12/17 12:40:56;;;;;;;30.27;15.38;;;;;;;3.79;69.87;99854.34;5111136;28;20471;-71
2021/12/17 12:43:31;;;;;;;25.75;14.32;;;;;;;3.79;69.91;99857.91;5111382;28;20049;-71
2021/12/17 12:45:57;;;;;;;21.35;12.48;;;;;;;3.77;70.22;99862.72;5111289;28;20058;-71
2021/12/17 12:48:38;;;;;;;14.70;7.45;;;;;;;3.75;70.18;99861.25;5110710;28;20412;-71
2021/12/17 12:51:21;;;;;;;15.20;6.63;;;;;;;3.75;70.43;99866.66;5111883;28;20161;-70
2021/12/17 12:54:02;;;;;;;16.83;7.68;;;;;;;3.76;69.93;99857.47;5106685;28;20121;-71
2021/12/17 12:56:28;;;;;;;10.80;5.88;;;;;;;3.71;69.37;99856.25;5105281;27;20460;-72
2021/12/17 12:58:54;;;;;;;14.50;5.95;;;;;;;3.69;70.06;99865.66;5109068;28;20032;-70
2021/12/17 13:01:21;;;;;;;16.33;7.18;;;;;;;3.68;69.48;99856.69;5110028;28;20859;-70
2021/12/17 13:03:47;;;;;;;12.88;5.82;;;;;;;3.68;70.09;99850.44;5091965;28;20039;-71
2021/12/17 13:06:20;;;;;;;11.52;5.32;;;;;;;3.65;69.09;99856.28;5110565;28;20027;-72
2021/12/17 13:08:56;;;;;;;11.50;5.40;;;;;;;3.64;69.43;99860.06;5108625;28;20027;-71
2021/12/17 13:11:22;;;;;;;14.98;6.38;;;;;;;3.61;70.50;99858.63;5109422;28;20456;-72
2021/12/17 13:13:54;;;;;;;18.13;7.40;;;;;;;3.59;70.05;99863.41;5091874;28;20110;-71
2021/12/17 13:21:58;;;;;;;14.38;6.45;;;;;;;3.63;69.91;99850.25;5110333;28;20043;-70
2021/12/17 13:24:27;;;;;;;15.40;6.63;;;;;;;3.57;70.18;99849.25;5110596;28;20027;-70
2021/12/17 13:27:03;;;;;;;13.82;5.78;;;;;;;3.55;70.20;99859.47;5108169;28;20020;-73
2021/12/17 13:29:34;;;;;;;11.93;5.63;;;;;;;3.57;70.50;99851.94;5109840;28;20479;-73
2021/12/17 13:32:11;;;;;;;14.57;5.35;;;;;;;3.57;71.24;99847.34;5105033;28;20073;-70
2021/12/17 13:34:41;;;;;;;18.27;7.43;;;;;;;3.55;70.78;99846.72;5109630;28;20039;-72
2021/12/17 13:37:15;;;;;;;16.58;5.78;;;;;;;3.52;71.11;99847.16;5108350;28;20027;-73
2021/12/17 13:39:55;;;;;;;16.75;6.28;;;;;;;3.50;71.32;99843.00;5108733;28;20039;-71
2021/12/17 13:42:26;;;;;;;25.35;11.55;;;;;;;3.53;71.17;99848.81;5111045;28;20024;-72
2021/12/17 13:45:06;;;;;;;12.05;5.70;;;;;;;3.51;71.58;99847.38;5093906;28;20032;-73
2021/12/17 13:47:40;;;;;;;21.10;9.18;;;;;;;3.52;70.90;99832.78;5106302;28;20130;-72
2021/12/17 13:50:05;;;;;;;16.67;6.32;;;;;;;3.51;71.90;99839.25;5108569;28;20315;-73
2021/12/17 13:52:33;;;;;;;52.90;22.17;;;;;;;3.53;71.28;99843.41;5111508;28;20032;-72
2021/12/17 13:55:02;;;;;;;59.70;25.00;;;;;;;3.51;71.34;99841.97;5084375;28;20084;-72
2021/12/17 13:57:30;;;;;;;29.33;15.25;;;;;;;3.50;72.00;99845.72;5110532;27;20062;-68
2021/12/17 14:00:24;;;;;;;29.08;16.92;;;;;;;3.49;72.22;99847.59;5113499;28;20083;-68
2021/12/17 14:02:54;;;;;;;20.65;11.98;;;;;;;3.48;72.28;99845.09;5110408;28;20046;-68
2021/12/17 14:05:28;;;;;;;29.50;12.45;;;;;;;3.48;72.09;99851.34;5110876;28;20032;-71
2021/12/17 14:07:56;;;;;;;23.23;10.82;;;;;;;3.49;72.12;99853.00;5111804;28;20403;-69
2021/12/17 14:10:33;;;;;;;40.65;25.08;;;;;;;3.48;72.64;99845.91;5112650;27;20031;-70
2021/12/17 14:13:00;;;;;;;28.45;14.13;;;;;;;3.47;71.96;99841.53;5092765;28;20065;-69
2021/12/17 14:15:28;;;;;;;23.50;12.35;;;;;;;3.44;71.76;99842.00;5113555;28;20023;-69
2021/12/17 14:17:58;;;;;;;15.57;8.20;;;;;;;3.41;71.75;99845.13;5105941;27;20024;-68
2021/12/17 14:20:27;;;;;;;20.00;6.68;;;;;;;3.37;72.64;99843.91;5110058;28;20063;-70
2021/12/17 14:23:03;;;;;;;25.58;11.07;;;;;;;3.36;71.90;99850.38;5111628;28;20058;-69
2021/12/17 14:25:39;;;;;;;33.25;14.52;;;;;;;3.36;72.58;99850.38;5114306;27;20028;-71
2021/12/17 14:28:19;;;;;;;102.88;34.78;;;;;;;3.36;72.55;99861.22;5111071;28;20024;-70
2021/12/17 14:30:53;;;;;;;48.90;20.65;;;;;;;3.32;72.92;99857.25;5111582;28;20432;-74
2021/12/17 14:33:21;;;;;;;15.65;9.07;;;;;;;3.32;72.40;99862.69;5108001;27;20040;-69
2021/12/17 14:35:46;;;;;;;18.15;9.80;;;;;;;3.27;72.14;99866.88;5107854;27;20031;-71
2021/12/17 14:38:16;;;;;;;10.73;6.00;;;;;;;3.28;72.53;99870.41;5112315;28;20416;-69
2021/12/17 14:40:47;;;;;;;17.30;8.70;;;;;;;3.22;72.74;99872.09;5106405;27;20114;-70
2021/12/17 14:43:18;;;;;;;15.95;8.23;;;;;;;3.20;72.49;99873.38;5112179;27;20110;-71
2021/12/17 14:45:52;;;;;;;15.70;7.97;;;;;;;3.19;72.90;99871.69;5112064;28;20024;-72
2021/12/17 14:48:22;;;;;;;19.08;9.35;;;;;;;3.18;73.11;99872.75;5112056;28;20034;-70
2021/12/17 15:04:47;;;;;;;15.77;9.10;;;;;;;3.16;73.48;99864.00;5112463;28;20543;-70
2021/12/17 15:07:12;;;;;;;24.15;10.68;;;;;;;3.13;73.46;99866.09;5111205;27;20035;-70
2021/12/17 15:09:43;;;;;;;17.20;7.38;;;;;;;3.14;72.87;99866.91;5092839;28;20022;-71